Airfield :
LOGIN :

Register | Disclaimer

   EN    FR    IT 

 










Legend :    VFR   Marginal VFR   IFR   Intensive IFR   Very Intensive IFR
Visi :
Ceiling :
>= 8 km
>= 3000ft
5 to 8 km
1000 to 3000 ft
1500m to 5 km
500 to 1000 ft
800 to 1500m
200 to 500 ft
< 800m
< 200 ft
Symbols :   Thunderstorms  Fog  Heavy snow  Heavy precipitations  Wind > 20 kt
SIGMETs :     Misc.  Thunderstorms  Icing  Turbulence  Mountain Waves  Volcanic Ashes






- Airport Elevation : 876 ft
- IATA code : MBX


LJMB - Maribor

CURRENT METAR :
  • 170230Z AUTO 18005KT 9000 RA NSC 13/12 Q1002

EXPIRED METARs :
  • 170200Z AUTO 19005KT 160V230 9999 -RA FEW028/// BKN077/// OVC100/// 13/12 Q1003 RERA
  • 170130Z AUTO 20005KT 170V240 9999 RA FEW022/// BKN067/// 13/12 Q1003
  • 170100Z AUTO 15002KT 9999 RA FEW029/// BKN042/// BKN110/// 14/12 Q1003
  • 170030Z AUTO 19002KT 9999 FEW031/// BKN050/// BKN130/// 14/12 Q1003
  • 170000Z AUTO 14004KT 9999 OVC029/// 15/11 Q1003
  • 162330Z AUTO 11004KT 9999 OVC029/// 14/11 Q1004

TAF TAF LJMB
Valid from the 17 at 00:00 until the 18 at 00:00 UTC


162300Z 1700/1724 16008KT 9999 SHRA BKN030TCU BKN045
PROB40
TEMPO 1700/1703 5000 TSRA BKN030CB BKN045
BECMG 1703/1705 35015KT RA BKN025 OVC035
BECMG 1709/1711 9999 NSW SCT015 BKN040
BECMG 1710/1712 18005KT
PROB30
TEMPO 1713/1718 -SHRA SCT030TCU BKN050



MET'MAP, your aeronautical weather chart ! - Copyright ORBIFLY December 2007 - Disclaimer

ORBIFLY MET'MAP TEAM :

Programming & Development : Alexandra Zaïnal
Concept & original design : Baudouin d'Aumeries
Assistance for programming : Marc-Olivier Méhu
Technical & hardware support : Manuel Goepfert

Contact : metmap@orbifly.com




SOURCES & CREDITS :

   NOAA